TNCE/EUX METAR and TAF weather

Enter ICAO airport designator
Station Type Date Time Source
TNCE METAR 2021/03/05 20:55 UTC NOAA

TNCE 052055Z AUTO 08009KT //// // ///////// 27/20 Q1014 RE//


Station Type Date Time Source
TNCE Decoded METAR 2021/03/05 20:55 UTC NOAA

Roosevelt Airport Saint Eustatius, Netherlands Antilles (TNCE) 17-29N 062-59W 39M
Mar 05, 2021 - 03:55 PM EST / 2021.03.05 2055 UTC
Wind: from the E (080 degrees) at 10 MPH (9 KT):0
Temperature: 80 F (27 C)
Dew Point: 68 F (20 C)
Relative Humidity: 65%
Pressure (altimeter): 29.94 in. Hg (1014 hPa)
ob: TNCE 052055Z AUTO 08009KT //// // ///////// 27/20 Q1014 RE//
cycle: 21

Station Type Date Time Source
TNCE TAF UTC NOAA

Error!

Example: see airport list